sensor_id;sensor_type;location;lat;lon;timestamp;P1;durP1;ratioP1;P2;durP2;ratioP2
35679;SDS011;21803;53.586;10.040;2023-12-22T00:00:44;1.10;;;0.50;;
35679;SDS011;21803;53.586;10.040;2023-12-22T00:03:12;1.00;;;0.70;;
35679;SDS011;21803;53.586;10.040;2023-12-22T00:05:38;0.85;;;0.60;;
35679;SDS011;21803;53.586;10.040;2023-12-22T00:08:04;0.70;;;0.40;;
35679;SDS011;21803;53.586;10.040;2023-12-22T00:10:29;0.50;;;0.43;;
35679;SDS011;21803;53.586;10.040;2023-12-22T00:12:55;0.55;;;0.43;;
35679;SDS011;21803;53.586;10.040;2023-12-22T00:15:20;1.15;;;0.50;;
35679;SDS011;21803;53.586;10.040;2023-12-22T00:17:46;0.70;;;0.50;;
35679;SDS011;21803;53.586;10.040;2023-12-22T00:20:12;0.73;;;0.57;;
35679;SDS011;21803;53.586;10.040;2023-12-22T00:22:39;0.77;;;0.50;;
35679;SDS011;21803;53.586;10.040;2023-12-22T00:25:04;1.08;;;0.70;;
35679;SDS011;21803;53.586;10.040;2023-12-22T00:27:32;1.33;;;0.60;;
35679;SDS011;21803;53.586;10.040;2023-12-22T00:29:57;0.80;;;0.57;;
35679;SDS011;21803;53.586;10.040;2023-12-22T00:32:23;1.33;;;0.68;;
35679;SDS011;21803;53.586;10.040;2023-12-22T00:34:48;0.88;;;0.52;;
35679;SDS011;21803;53.586;10.040;2023-12-22T00:37:14;0.85;;;0.55;;
35679;SDS011;21803;53.586;10.040;2023-12-22T00:39:39;1.40;;;0.50;;
35679;SDS011;21803;53.586;10.040;2023-12-22T00:42:05;0.70;;;0.60;;
35679;SDS011;21803;53.586;10.040;2023-12-22T00:44:30;0.93;;;0.60;;
35679;SDS011;21803;53.586;10.040;2023-12-22T00:46:56;0.65;;;0.50;;
35679;SDS011;21803;53.586;10.040;2023-12-22T00:49:21;0.50;;;0.50;;
35679;SDS011;21803;53.586;10.040;2023-12-22T00:51:47;0.55;;;0.47;;
35679;SDS011;21803;53.586;10.040;2023-12-22T00:54:13;1.08;;;0.55;;
35679;SDS011;21803;53.586;10.040;2023-12-22T00:56:38;0.75;;;0.52;;
35679;SDS011;21803;53.586;10.040;2023-12-22T00:59:04;0.73;;;0.50;;
35679;SDS011;21803;53.586;10.040;2023-12-22T01:01:29;0.98;;;0.50;;
35679;SDS011;21803;53.586;10.040;2023-12-22T01:03:55;0.90;;;0.60;;
35679;SDS011;21803;53.586;10.040;2023-12-22T01:06:21;0.63;;;0.50;;
35679;SDS011;21803;53.586;10.040;2023-12-22T01:08:46;0.90;;;0.50;;
35679;SDS011;21803;53.586;10.040;2023-12-22T01:11:15;1.38;;;0.40;;
35679;SDS011;21803;53.586;10.040;2023-12-22T01:13:41;0.75;;;0.50;;
35679;SDS011;21803;53.586;10.040;2023-12-22T01:16:07;0.80;;;0.40;;
35679;SDS011;21803;53.586;10.040;2023-12-22T01:18:33;0.70;;;0.50;;
35679;SDS011;21803;53.586;10.040;2023-12-22T01:20:58;0.80;;;0.60;;
35679;SDS011;21803;53.586;10.040;2023-12-22T01:23:24;0.95;;;0.50;;
35679;SDS011;21803;53.586;10.040;2023-12-22T01:25:50;0.60;;;0.38;;
35679;SDS011;21803;53.586;10.040;2023-12-22T01:28:16;0.70;;;0.45;;
35679;SDS011;21803;53.586;10.040;2023-12-22T01:30:41;0.80;;;0.63;;
35679;SDS011;21803;53.586;10.040;2023-12-22T01:33:07;0.80;;;0.50;;
35679;SDS011;21803;53.586;10.040;2023-12-22T01:35:32;0.38;;;0.32;;
35679;SDS011;21803;53.586;10.040;2023-12-22T01:37:58;0.98;;;0.50;;
35679;SDS011;21803;53.586;10.040;2023-12-22T01:40:23;0.80;;;0.60;;
35679;SDS011;21803;53.586;10.040;2023-12-22T01:42:49;0.52;;;0.40;;
35679;SDS011;21803;53.586;10.040;2023-12-22T01:45:14;0.88;;;0.40;;
35679;SDS011;21803;53.586;10.040;2023-12-22T01:47:40;0.45;;;0.40;;
35679;SDS011;21803;53.586;10.040;2023-12-22T01:50:06;0.82;;;0.40;;
35679;SDS011;21803;53.586;10.040;2023-12-22T01:52:35;0.73;;;0.40;;
35679;SDS011;21803;53.586;10.040;2023-12-22T01:55:02;0.98;;;0.60;;
35679;SDS011;21803;53.586;10.040;2023-12-22T01:57:28;0.38;;;0.30;;
35679;SDS011;21803;53.586;10.040;2023-12-22T01:59:54;0.30;;;0.30;;
35679;SDS011;21803;53.586;10.040;2023-12-22T02:02:21;0.40;;;0.30;;
35679;SDS011;21803;53.586;10.040;2023-12-22T02:04:47;0.30;;;0.30;;
35679;SDS011;21803;53.586;10.040;2023-12-22T02:07:13;0.50;;;0.38;;
35679;SDS011;21803;53.586;10.040;2023-12-22T02:09:38;0.77;;;0.50;;
35679;SDS011;21803;53.586;10.040;2023-12-22T02:12:04;0.38;;;0.38;;
35679;SDS011;21803;53.586;10.040;2023-12-22T02:14:30;0.40;;;0.30;;
35679;SDS011;21803;53.586;10.040;2023-12-22T02:17:11;1.00;;;0.50;;
35679;SDS011;21803;53.586;10.040;2023-12-22T02:19:47;0.40;;;0.40;;
35679;SDS011;21803;53.586;10.040;2023-12-22T02:22:13;0.75;;;0.40;;
35679;SDS011;21803;53.586;10.040;2023-12-22T02:24:39;0.68;;;0.50;;
35679;SDS011;21803;53.586;10.040;2023-12-22T02:27:06;0.30;;;0.30;;
35679;SDS011;21803;53.586;10.040;2023-12-22T02:29:37;0.63;;;0.43;;
35679;SDS011;21803;53.586;10.040;2023-12-22T02:32:10;0.60;;;0.40;;
35679;SDS011;21803;53.586;10.040;2023-12-22T02:34:41;0.77;;;0.50;;
35679;SDS011;21803;53.586;10.040;2023-12-22T02:37:09;0.50;;;0.43;;
35679;SDS011;21803;53.586;10.040;2023-12-22T02:39:36;0.40;;;0.40;;
35679;SDS011;21803;53.586;10.040;2023-12-22T02:42:02;0.40;;;0.40;;
35679;SDS011;21803;53.586;10.040;2023-12-22T02:44:29;0.98;;;0.47;;
35679;SDS011;21803;53.586;10.040;2023-12-22T02:46:55;0.90;;;0.50;;
35679;SDS011;21803;53.586;10.040;2023-12-22T02:49:21;1.13;;;0.60;;
35679;SDS011;21803;53.586;10.040;2023-12-22T02:51:47;0.70;;;0.40;;
35679;SDS011;21803;53.586;10.040;2023-12-22T02:54:12;0.55;;;0.40;;
35679;SDS011;21803;53.586;10.040;2023-12-22T02:56:38;0.43;;;0.38;;
35679;SDS011;21803;53.586;10.040;2023-12-22T02:59:03;0.77;;;0.50;;
35679;SDS011;21803;53.586;10.040;2023-12-22T03:01:29;0.75;;;0.50;;
35679;SDS011;21803;53.586;10.040;2023-12-22T03:03:54;0.50;;;0.50;;
35679;SDS011;21803;53.586;10.040;2023-12-22T03:06:20;0.30;;;0.30;;
35679;SDS011;21803;53.586;10.040;2023-12-22T03:08:45;0.63;;;0.25;;
35679;SDS011;21803;53.586;10.040;2023-12-22T03:11:11;0.55;;;0.50;;
35679;SDS011;21803;53.586;10.040;2023-12-22T03:13:36;0.43;;;0.38;;
35679;SDS011;21803;53.586;10.040;2023-12-22T03:16:02;0.50;;;0.40;;
35679;SDS011;21803;53.586;10.040;2023-12-22T03:18:28;0.50;;;0.50;;
35679;SDS011;21803;53.586;10.040;2023-12-22T03:20:53;0.30;;;0.30;;
35679;SDS011;21803;53.586;10.040;2023-12-22T03:23:19;0.50;;;0.40;;
35679;SDS011;21803;53.586;10.040;2023-12-22T03:25:44;0.65;;;0.30;;
35679;SDS011;21803;53.586;10.040;2023-12-22T03:28:10;0.50;;;0.40;;
35679;SDS011;21803;53.586;10.040;2023-12-22T03:30:35;0.38;;;0.32;;
35679;SDS011;21803;53.586;10.040;2023-12-22T03:33:02;0.45;;;0.40;;
35679;SDS011;21803;53.586;10.040;2023-12-22T03:35:28;0.60;;;0.40;;
35679;SDS011;21803;53.586;10.040;2023-12-22T03:37:54;0.55;;;0.50;;
35679;SDS011;21803;53.586;10.040;2023-12-22T03:40:19;0.40;;;0.40;;
35679;SDS011;21803;53.586;10.040;2023-12-22T03:42:45;0.32;;;0.32;;
35679;SDS011;21803;53.586;10.040;2023-12-22T03:45:10;0.50;;;0.45;;
35679;SDS011;21803;53.586;10.040;2023-12-22T03:47:36;0.45;;;0.22;;
35679;SDS011;21803;53.586;10.040;2023-12-22T03:50:01;0.40;;;0.30;;
35679;SDS011;21803;53.586;10.040;2023-12-22T03:52:27;0.30;;;0.20;;
35679;SDS011;21803;53.586;10.040;2023-12-22T03:54:52;0.35;;;0.30;;
35679;SDS011;21803;53.586;10.040;2023-12-22T03:57:18;0.32;;;0.32;;
35679;SDS011;21803;53.586;10.040;2023-12-22T03:59:43;0.30;;;0.30;;
35679;SDS011;21803;53.586;10.040;2023-12-22T04:02:09;0.30;;;0.30;;
35679;SDS011;21803;53.586;10.040;2023-12-22T04:04:37;0.65;;;0.30;;
35679;SDS011;21803;53.586;10.040;2023-12-22T04:07:03;0.40;;;0.30;;
35679;SDS011;21803;53.586;10.040;2023-12-22T04:09:29;0.32;;;0.32;;
35679;SDS011;21803;53.586;10.040;2023-12-22T04:11:54;0.45;;;0.35;;
35679;SDS011;21803;53.586;10.040;2023-12-22T04:14:20;0.43;;;0.30;;
35679;SDS011;21803;53.586;10.040;2023-12-22T04:16:45;0.25;;;0.25;;
35679;SDS011;21803;53.586;10.040;2023-12-22T04:19:11;0.30;;;0.30;;
35679;SDS011;21803;53.586;10.040;2023-12-22T04:21:36;0.40;;;0.30;;
35679;SDS011;21803;53.586;10.040;2023-12-22T04:24:02;0.20;;;0.20;;
35679;SDS011;21803;53.586;10.040;2023-12-22T04:26:28;0.40;;;0.40;;
35679;SDS011;21803;53.586;10.040;2023-12-22T04:28:53;0.30;;;0.30;;
35679;SDS011;21803;53.586;10.040;2023-12-22T04:31:19;1.00;;;0.40;;
35679;SDS011;21803;53.586;10.040;2023-12-22T04:33:44;0.63;;;0.43;;
35679;SDS011;21803;53.586;10.040;2023-12-22T04:36:10;0.95;;;0.40;;
35679;SDS011;21803;53.586;10.040;2023-12-22T04:38:35;0.38;;;0.30;;
35679;SDS011;21803;53.586;10.040;2023-12-22T04:41:01;0.70;;;0.35;;
35679;SDS011;21803;53.586;10.040;2023-12-22T04:43:27;1.15;;;0.50;;
35679;SDS011;21803;53.586;10.040;2023-12-22T04:45:52;0.20;;;0.20;;
35679;SDS011;21803;53.586;10.040;2023-12-22T04:48:18;0.30;;;0.30;;
35679;SDS011;21803;53.586;10.040;2023-12-22T04:50:43;0.40;;;0.40;;
35679;SDS011;21803;53.586;10.040;2023-12-22T04:53:09;0.30;;;0.30;;
35679;SDS011;21803;53.586;10.040;2023-12-22T04:55:34;0.30;;;0.30;;
35679;SDS011;21803;53.586;10.040;2023-12-22T04:58:00;0.20;;;0.20;;
35679;SDS011;21803;53.586;10.040;2023-12-22T05:00:26;0.30;;;0.27;;
35679;SDS011;21803;53.586;10.040;2023-12-22T05:02:51;0.38;;;0.28;;
35679;SDS011;21803;53.586;10.040;2023-12-22T05:05:17;0.40;;;0.40;;
35679;SDS011;21803;53.586;10.040;2023-12-22T05:07:43;0.50;;;0.38;;
35679;SDS011;21803;53.586;10.040;2023-12-22T05:10:08;0.20;;;0.20;;
35679;SDS011;21803;53.586;10.040;2023-12-22T05:12:34;0.13;;;0.13;;
35679;SDS011;21803;53.586;10.040;2023-12-22T05:14:59;0.88;;;0.32;;
35679;SDS011;21803;53.586;10.040;2023-12-22T05:17:25;0.30;;;0.30;;
35679;SDS011;21803;53.586;10.040;2023-12-22T05:19:50;0.25;;;0.25;;
35679;SDS011;21803;53.586;10.040;2023-12-22T05:22:16;0.30;;;0.30;;
35679;SDS011;21803;53.586;10.040;2023-12-22T05:24:41;0.50;;;0.40;;
35679;SDS011;21803;53.586;10.040;2023-12-22T05:27:07;0.60;;;0.40;;
35679;SDS011;21803;53.586;10.040;2023-12-22T05:29:33;0.22;;;0.22;;
35679;SDS011;21803;53.586;10.040;2023-12-22T05:31:58;0.45;;;0.40;;
35679;SDS011;21803;53.586;10.040;2023-12-22T05:34:25;0.40;;;0.40;;
35679;SDS011;21803;53.586;10.040;2023-12-22T05:36:50;0.88;;;0.40;;
35679;SDS011;21803;53.586;10.040;2023-12-22T05:39:16;1.65;;;0.40;;
35679;SDS011;21803;53.586;10.040;2023-12-22T05:41:41;0.43;;;0.40;;
35679;SDS011;21803;53.586;10.040;2023-12-22T05:44:07;0.40;;;0.30;;
35679;SDS011;21803;53.586;10.040;2023-12-22T05:46:38;0.45;;;0.32;;
35679;SDS011;21803;53.586;10.040;2023-12-22T05:49:04;0.63;;;0.35;;
35679;SDS011;21803;53.586;10.040;2023-12-22T05:51:40;0.40;;;0.30;;
35679;SDS011;21803;53.586;10.040;2023-12-22T05:54:08;0.88;;;0.50;;
35679;SDS011;21803;53.586;10.040;2023-12-22T05:56:35;0.50;;;0.30;;
35679;SDS011;21803;53.586;10.040;2023-12-22T05:59:01;0.32;;;0.20;;
35679;SDS011;21803;53.586;10.040;2023-12-22T06:01:28;0.17;;;0.17;;
35679;SDS011;21803;53.586;10.040;2023-12-22T06:03:53;0.40;;;0.40;;
35679;SDS011;21803;53.586;10.040;2023-12-22T06:06:19;0.47;;;0.30;;
35679;SDS011;21803;53.586;10.040;2023-12-22T06:08:45;0.30;;;0.30;;
35679;SDS011;21803;53.586;10.040;2023-12-22T06:11:11;0.20;;;0.20;;
35679;SDS011;21803;53.586;10.040;2023-12-22T06:13:36;0.65;;;0.40;;
35679;SDS011;21803;53.586;10.040;2023-12-22T06:16:02;0.52;;;0.40;;
35679;SDS011;21803;53.586;10.040;2023-12-22T06:18:28;0.30;;;0.30;;
35679;SDS011;21803;53.586;10.040;2023-12-22T06:20:53;0.20;;;0.20;;
35679;SDS011;21803;53.586;10.040;2023-12-22T06:23:19;0.77;;;0.40;;
35679;SDS011;21803;53.586;10.040;2023-12-22T06:25:45;0.83;;;0.30;;
35679;SDS011;21803;53.586;10.040;2023-12-22T06:28:11;0.47;;;0.40;;
35679;SDS011;21803;53.586;10.040;2023-12-22T06:30:37;0.30;;;0.30;;
35679;SDS011;21803;53.586;10.040;2023-12-22T06:33:03;0.40;;;0.30;;
35679;SDS011;21803;53.586;10.040;2023-12-22T06:35:28;0.88;;;0.38;;
35679;SDS011;21803;53.586;10.040;2023-12-22T06:37:54;0.32;;;0.28;;
35679;SDS011;21803;53.586;10.040;2023-12-22T06:40:21;0.47;;;0.35;;
35679;SDS011;21803;53.586;10.040;2023-12-22T06:42:46;0.43;;;0.40;;
35679;SDS011;21803;53.586;10.040;2023-12-22T06:45:12;0.25;;;0.25;;
35679;SDS011;21803;53.586;10.040;2023-12-22T06:47:37;0.40;;;0.30;;
35679;SDS011;21803;53.586;10.040;2023-12-22T06:50:03;1.15;;;0.40;;
35679;SDS011;21803;53.586;10.040;2023-12-22T06:52:29;0.50;;;0.30;;
35679;SDS011;21803;53.586;10.040;2023-12-22T06:54:55;0.93;;;0.40;;
35679;SDS011;21803;53.586;10.040;2023-12-22T06:57:21;0.50;;;0.38;;
35679;SDS011;21803;53.586;10.040;2023-12-22T06:59:47;0.63;;;0.40;;
35679;SDS011;21803;53.586;10.040;2023-12-22T07:02:14;0.60;;;0.30;;
35679;SDS011;21803;53.586;10.040;2023-12-22T07:04:59;0.30;;;0.30;;
35679;SDS011;21803;53.586;10.040;2023-12-22T07:07:31;0.30;;;0.30;;
35679;SDS011;21803;53.586;10.040;2023-12-22T07:09:57;0.57;;;0.35;;
35679;SDS011;21803;53.586;10.040;2023-12-22T07:12:22;0.28;;;0.25;;
35679;SDS011;21803;53.586;10.040;2023-12-22T07:14:48;0.43;;;0.40;;
35679;SDS011;21803;53.586;10.040;2023-12-22T07:17:13;0.43;;;0.30;;
35679;SDS011;21803;53.586;10.040;2023-12-22T07:19:39;0.80;;;0.43;;
35679;SDS011;21803;53.586;10.040;2023-12-22T07:22:04;0.70;;;0.43;;
35679;SDS011;21803;53.586;10.040;2023-12-22T07:24:30;0.40;;;0.40;;
35679;SDS011;21803;53.586;10.040;2023-12-22T07:26:55;0.30;;;0.30;;
35679;SDS011;21803;53.586;10.040;2023-12-22T07:29:21;0.43;;;0.30;;
35679;SDS011;21803;53.586;10.040;2023-12-22T07:31:46;0.45;;;0.40;;
35679;SDS011;21803;53.586;10.040;2023-12-22T07:34:12;0.50;;;0.30;;
35679;SDS011;21803;53.586;10.040;2023-12-22T07:36:38;0.32;;;0.30;;
35679;SDS011;21803;53.586;10.040;2023-12-22T07:39:04;0.40;;;0.40;;
35679;SDS011;21803;53.586;10.040;2023-12-22T07:41:31;0.40;;;0.30;;
35679;SDS011;21803;53.586;10.040;2023-12-22T07:43:56;0.40;;;0.30;;
35679;SDS011;21803;53.586;10.040;2023-12-22T07:46:22;0.40;;;0.40;;
35679;SDS011;21803;53.586;10.040;2023-12-22T07:48:47;0.77;;;0.30;;
35679;SDS011;21803;53.586;10.040;2023-12-22T07:51:13;0.60;;;0.60;;
35679;SDS011;21803;53.586;10.040;2023-12-22T07:53:39;0.47;;;0.30;;
35679;SDS011;21803;53.586;10.040;2023-12-22T07:56:05;0.63;;;0.40;;
35679;SDS011;21803;53.586;10.040;2023-12-22T07:58:31;0.57;;;0.38;;
35679;SDS011;21803;53.586;10.040;2023-12-22T08:00:57;0.60;;;0.40;;
35679;SDS011;21803;53.586;10.040;2023-12-22T08:03:23;0.50;;;0.35;;
35679;SDS011;21803;53.586;10.040;2023-12-22T08:05:49;0.32;;;0.30;;
35679;SDS011;21803;53.586;10.040;2023-12-22T08:08:14;0.35;;;0.32;;
35679;SDS011;21803;53.586;10.040;2023-12-22T08:10:40;0.67;;;0.43;;
35679;SDS011;21803;53.586;10.040;2023-12-22T08:13:06;0.38;;;0.30;;
35679;SDS011;21803;53.586;10.040;2023-12-22T08:15:31;0.47;;;0.40;;
35679;SDS011;21803;53.586;10.040;2023-12-22T08:17:57;0.60;;;0.40;;
35679;SDS011;21803;53.586;10.040;2023-12-22T08:20:23;0.30;;;0.30;;
35679;SDS011;21803;53.586;10.040;2023-12-22T08:22:49;0.40;;;0.40;;
35679;SDS011;21803;53.586;10.040;2023-12-22T08:25:15;0.73;;;0.52;;
35679;SDS011;21803;53.586;10.040;2023-12-22T08:27:44;0.67;;;0.40;;
35679;SDS011;21803;53.586;10.040;2023-12-22T08:30:10;0.28;;;0.28;;
35679;SDS011;21803;53.586;10.040;2023-12-22T08:32:36;0.50;;;0.40;;
35679;SDS011;21803;53.586;10.040;2023-12-22T08:35:02;0.20;;;0.20;;
35679;SDS011;21803;53.586;10.040;2023-12-22T08:37:29;0.30;;;0.30;;
35679;SDS011;21803;53.586;10.040;2023-12-22T08:39:55;0.57;;;0.32;;
35679;SDS011;21803;53.586;10.040;2023-12-22T08:42:21;0.45;;;0.35;;
35679;SDS011;21803;53.586;10.040;2023-12-22T08:44:47;0.40;;;0.40;;
35679;SDS011;21803;53.586;10.040;2023-12-22T08:47:13;0.45;;;0.30;;
35679;SDS011;21803;53.586;10.040;2023-12-22T08:49:38;0.40;;;0.30;;
35679;SDS011;21803;53.586;10.040;2023-12-22T08:52:04;0.30;;;0.30;;
35679;SDS011;21803;53.586;10.040;2023-12-22T08:54:30;0.20;;;0.20;;
35679;SDS011;21803;53.586;10.040;2023-12-22T08:56:55;0.63;;;0.43;;
35679;SDS011;21803;53.586;10.040;2023-12-22T08:59:21;0.30;;;0.30;;
35679;SDS011;21803;53.586;10.040;2023-12-22T09:01:46;0.30;;;0.30;;
35679;SDS011;21803;53.586;10.040;2023-12-22T09:04:12;0.35;;;0.32;;
35679;SDS011;21803;53.586;10.040;2023-12-22T09:06:38;0.30;;;0.30;;
35679;SDS011;21803;53.586;10.040;2023-12-22T09:09:04;0.30;;;0.30;;
35679;SDS011;21803;53.586;10.040;2023-12-22T09:11:30;0.40;;;0.30;;
35679;SDS011;21803;53.586;10.040;2023-12-22T09:13:55;0.30;;;0.30;;
35679;SDS011;21803;53.586;10.040;2023-12-22T09:16:21;1.17;;;0.30;;
35679;SDS011;21803;53.586;10.040;2023-12-22T09:18:48;0.40;;;0.30;;
35679;SDS011;21803;53.586;10.040;2023-12-22T09:21:14;0.25;;;0.20;;
35679;SDS011;21803;53.586;10.040;2023-12-22T09:23:40;0.40;;;0.40;;
35679;SDS011;21803;53.586;10.040;2023-12-22T09:26:09;0.30;;;0.30;;
35679;SDS011;21803;53.586;10.040;2023-12-22T09:28:35;0.40;;;0.40;;
35679;SDS011;21803;53.586;10.040;2023-12-22T09:31:00;0.47;;;0.40;;
35679;SDS011;21803;53.586;10.040;2023-12-22T09:33:27;0.80;;;0.40;;
35679;SDS011;21803;53.586;10.040;2023-12-22T09:35:52;0.40;;;0.30;;
35679;SDS011;21803;53.586;10.040;2023-12-22T09:38:18;1.03;;;0.50;;
35679;SDS011;21803;53.586;10.040;2023-12-22T09:40:44;0.98;;;0.50;;
35679;SDS011;21803;53.586;10.040;2023-12-22T09:43:09;0.35;;;0.30;;
35679;SDS011;21803;53.586;10.040;2023-12-22T09:45:39;0.98;;;0.45;;
35679;SDS011;21803;53.586;10.040;2023-12-22T09:48:06;0.30;;;0.30;;
35679;SDS011;21803;53.586;10.040;2023-12-22T09:50:32;0.52;;;0.32;;
35679;SDS011;21803;53.586;10.040;2023-12-22T09:52:59;0.38;;;0.20;;
35679;SDS011;21803;53.586;10.040;2023-12-22T09:55:27;0.20;;;0.20;;
35679;SDS011;21803;53.586;10.040;2023-12-22T09:57:53;0.38;;;0.30;;
35679;SDS011;21803;53.586;10.040;2023-12-22T10:00:21;0.50;;;0.50;;
35679;SDS011;21803;53.586;10.040;2023-12-22T10:02:48;0.40;;;0.40;;
35679;SDS011;21803;53.586;10.040;2023-12-22T10:05:14;0.28;;;0.28;;
35679;SDS011;21803;53.586;10.040;2023-12-22T10:07:44;0.50;;;0.40;;
35679;SDS011;21803;53.586;10.040;2023-12-22T10:10:10;0.80;;;0.32;;
35679;SDS011;21803;53.586;10.040;2023-12-22T10:12:37;0.10;;;0.10;;
35679;SDS011;21803;53.586;10.040;2023-12-22T10:15:04;0.85;;;0.22;;
35679;SDS011;21803;53.586;10.040;2023-12-22T10:17:32;0.68;;;0.40;;
35679;SDS011;21803;53.586;10.040;2023-12-22T10:19:58;0.45;;;0.40;;
35679;SDS011;21803;53.586;10.040;2023-12-22T10:22:24;0.28;;;0.28;;
35679;SDS011;21803;53.586;10.040;2023-12-22T10:24:49;0.55;;;0.40;;
35679;SDS011;21803;53.586;10.040;2023-12-22T10:27:18;0.40;;;0.40;;
35679;SDS011;21803;53.586;10.040;2023-12-22T10:29:51;0.40;;;0.28;;
35679;SDS011;21803;53.586;10.040;2023-12-22T10:32:20;0.65;;;0.30;;
35679;SDS011;21803;53.586;10.040;2023-12-22T10:34:46;0.75;;;0.30;;
35679;SDS011;21803;53.586;10.040;2023-12-22T10:37:12;0.30;;;0.30;;
35679;SDS011;21803;53.586;10.040;2023-12-22T10:39:38;0.40;;;0.38;;
35679;SDS011;21803;53.586;10.040;2023-12-22T10:42:03;0.50;;;0.30;;
35679;SDS011;21803;53.586;10.040;2023-12-22T10:44:29;0.28;;;0.25;;
35679;SDS011;21803;53.586;10.040;2023-12-22T10:46:55;0.30;;;0.30;;
35679;SDS011;21803;53.586;10.040;2023-12-22T10:49:22;0.55;;;0.40;;
35679;SDS011;21803;53.586;10.040;2023-12-22T10:51:48;0.30;;;0.30;;
35679;SDS011;21803;53.586;10.040;2023-12-22T10:54:15;0.35;;;0.35;;
35679;SDS011;21803;53.586;10.040;2023-12-22T10:56:41;0.88;;;0.35;;
35679;SDS011;21803;53.586;10.040;2023-12-22T10:59:07;0.25;;;0.25;;
35679;SDS011;21803;53.586;10.040;2023-12-22T11:01:36;0.30;;;0.30;;
35679;SDS011;21803;53.586;10.040;2023-12-22T11:04:05;0.35;;;0.35;;
35679;SDS011;21803;53.586;10.040;2023-12-22T11:06:36;0.45;;;0.40;;
35679;SDS011;21803;53.586;10.040;2023-12-22T11:09:09;0.85;;;0.45;;
35679;SDS011;21803;53.586;10.040;2023-12-22T11:11:38;0.65;;;0.30;;
35679;SDS011;21803;53.586;10.040;2023-12-22T11:14:05;0.60;;;0.40;;
35679;SDS011;21803;53.586;10.040;2023-12-22T11:16:32;0.52;;;0.30;;
35679;SDS011;21803;53.586;10.040;2023-12-22T11:18:59;0.73;;;0.40;;
35679;SDS011;21803;53.586;10.040;2023-12-22T11:21:26;0.30;;;0.30;;
35679;SDS011;21803;53.586;10.040;2023-12-22T11:23:53;0.30;;;0.28;;
35679;SDS011;21803;53.586;10.040;2023-12-22T11:26:20;0.50;;;0.40;;
35679;SDS011;21803;53.586;10.040;2023-12-22T11:28:47;0.75;;;0.50;;
35679;SDS011;21803;53.586;10.040;2023-12-22T11:31:14;0.32;;;0.32;;
35679;SDS011;21803;53.586;10.040;2023-12-22T11:33:44;0.47;;;0.32;;
35679;SDS011;21803;53.586;10.040;2023-12-22T11:36:14;0.65;;;0.40;;
35679;SDS011;21803;53.586;10.040;2023-12-22T11:38:40;0.30;;;0.30;;
35679;SDS011;21803;53.586;10.040;2023-12-22T11:41:10;4.57;;;0.52;;
35679;SDS011;21803;53.586;10.040;2023-12-22T11:43:40;1.52;;;0.63;;
35679;SDS011;21803;53.586;10.040;2023-12-22T11:46:08;8.63;;;0.90;;
35679;SDS011;21803;53.586;10.040;2023-12-22T11:48:34;1.52;;;0.75;;
35679;SDS011;21803;53.586;10.040;2023-12-22T11:51:00;5.68;;;0.88;;
35679;SDS011;21803;53.586;10.040;2023-12-22T11:53:27;3.22;;;1.10;;
35679;SDS011;21803;53.586;10.040;2023-12-22T11:56:04;2.97;;;0.98;;
35679;SDS011;21803;53.586;10.040;2023-12-22T11:58:37;6.32;;;1.33;;
35679;SDS011;21803;53.586;10.040;2023-12-22T12:01:09;4.70;;;1.00;;
35679;SDS011;21803;53.586;10.040;2023-12-22T12:03:37;4.78;;;1.02;;
35679;SDS011;21803;53.586;10.040;2023-12-22T12:06:21;5.00;;;1.10;;
35679;SDS011;21803;53.586;10.040;2023-12-22T12:08:56;5.10;;;1.27;;
35679;SDS011;21803;53.586;10.040;2023-12-22T12:14:21;3.90;;;1.10;;
35679;SDS011;21803;53.586;10.040;2023-12-22T12:16:48;5.15;;;1.45;;
35679;SDS011;21803;53.586;10.040;2023-12-22T12:19:13;7.82;;;1.52;;
35679;SDS011;21803;53.586;10.040;2023-12-22T12:21:39;2.63;;;0.93;;
35679;SDS011;21803;53.586;10.040;2023-12-22T12:24:05;6.90;;;1.23;;
35679;SDS011;21803;53.586;10.040;2023-12-22T12:26:32;7.13;;;1.45;;
35679;SDS011;21803;53.586;10.040;2023-12-22T12:28:58;4.85;;;0.95;;
35679;SDS011;21803;53.586;10.040;2023-12-22T12:31:36;3.90;;;1.02;;
35679;SDS011;21803;53.586;10.040;2023-12-22T12:34:06;4.35;;;0.90;;
35679;SDS011;21803;53.586;10.040;2023-12-22T12:36:33;1.85;;;1.00;;
35679;SDS011;21803;53.586;10.040;2023-12-22T12:39:01;3.75;;;1.00;;
35679;SDS011;21803;53.586;10.040;2023-12-22T12:41:36;1.83;;;0.75;;
35679;SDS011;21803;53.586;10.040;2023-12-22T12:44:06;1.92;;;0.70;;
35679;SDS011;21803;53.586;10.040;2023-12-22T12:46:33;3.58;;;1.02;;
35679;SDS011;21803;53.586;10.040;2023-12-22T12:49:03;2.72;;;0.90;;
35679;SDS011;21803;53.586;10.040;2023-12-22T12:51:30;2.17;;;0.90;;
35679;SDS011;21803;53.586;10.040;2023-12-22T12:54:00;2.83;;;0.98;;
35679;SDS011;21803;53.586;10.040;2023-12-22T12:56:25;1.20;;;0.70;;
35679;SDS011;21803;53.586;10.040;2023-12-22T12:58:51;2.63;;;0.80;;
35679;SDS011;21803;53.586;10.040;2023-12-22T13:01:17;1.25;;;0.80;;
35679;SDS011;21803;53.586;10.040;2023-12-22T13:04:16;1.75;;;0.73;;
35679;SDS011;21803;53.586;10.040;2023-12-22T13:06:35;1.00;;;0.60;;
35679;SDS011;21803;53.586;10.040;2023-12-22T13:09:11;1.40;;;0.60;;
35679;SDS011;21803;53.586;10.040;2023-12-22T13:11:40;2.45;;;0.77;;
35679;SDS011;21803;53.586;10.040;2023-12-22T13:14:10;2.63;;;1.00;;
35679;SDS011;21803;53.586;10.040;2023-12-22T13:16:37;3.17;;;0.95;;
35679;SDS011;21803;53.586;10.040;2023-12-22T13:19:04;4.60;;;0.80;;
35679;SDS011;21803;53.586;10.040;2023-12-22T13:21:30;1.67;;;0.70;;
35679;SDS011;21803;53.586;10.040;2023-12-22T13:26:43;1.60;;;0.70;;
35679;SDS011;21803;53.586;10.040;2023-12-22T13:29:09;1.60;;;0.60;;
35679;SDS011;21803;53.586;10.040;2023-12-22T13:31:37;1.65;;;0.60;;
35679;SDS011;21803;53.586;10.040;2023-12-22T13:34:11;0.95;;;0.60;;
35679;SDS011;21803;53.586;10.040;2023-12-22T13:36:37;1.25;;;0.60;;
35679;SDS011;21803;53.586;10.040;2023-12-22T13:39:06;2.13;;;0.60;;
35679;SDS011;21803;53.586;10.040;2023-12-22T13:41:35;2.20;;;0.68;;
35679;SDS011;21803;53.586;10.040;2023-12-22T13:44:05;3.33;;;0.80;;
35679;SDS011;21803;53.586;10.040;2023-12-22T13:46:31;1.58;;;0.68;;
35679;SDS011;21803;53.586;10.040;2023-12-22T13:48:58;2.47;;;0.65;;
35679;SDS011;21803;53.586;10.040;2023-12-22T13:51:24;2.50;;;0.63;;
35679;SDS011;21803;53.586;10.040;2023-12-22T13:53:49;1.25;;;0.50;;
35679;SDS011;21803;53.586;10.040;2023-12-22T13:56:15;1.73;;;0.60;;
35679;SDS011;21803;53.586;10.040;2023-12-22T13:58:44;0.98;;;0.50;;
35679;SDS011;21803;53.586;10.040;2023-12-22T14:01:13;1.07;;;0.60;;
35679;SDS011;21803;53.586;10.040;2023-12-22T14:03:43;1.80;;;0.80;;
35679;SDS011;21803;53.586;10.040;2023-12-22T14:06:09;0.50;;;0.43;;
35679;SDS011;21803;53.586;10.040;2023-12-22T14:08:38;1.90;;;0.53;;
35679;SDS011;21803;53.586;10.040;2023-12-22T14:11:05;1.57;;;0.60;;
35679;SDS011;21803;53.586;10.040;2023-12-22T14:13:31;1.02;;;0.60;;
35679;SDS011;21803;53.586;10.040;2023-12-22T14:15:56;1.35;;;0.70;;
35679;SDS011;21803;53.586;10.040;2023-12-22T14:18:22;0.88;;;0.50;;
35679;SDS011;21803;53.586;10.040;2023-12-22T14:20:47;1.50;;;0.60;;
35679;SDS011;21803;53.586;10.040;2023-12-22T14:23:13;0.80;;;0.60;;
35679;SDS011;21803;53.586;10.040;2023-12-22T14:25:41;0.88;;;0.80;;
35679;SDS011;21803;53.586;10.040;2023-12-22T14:28:08;1.23;;;0.50;;
35679;SDS011;21803;53.586;10.040;2023-12-22T14:30:33;0.77;;;0.50;;
35679;SDS011;21803;53.586;10.040;2023-12-22T14:32:59;1.00;;;0.63;;
35679;SDS011;21803;53.586;10.040;2023-12-22T14:35:24;1.75;;;0.47;;